createdAt,value
2018-05-16T00:00:44.507Z,19.87
2018-05-16T00:03:11.886Z,20.70
2018-05-16T00:05:39.268Z,20.53
2018-05-16T00:08:06.655Z,21.30
2018-05-16T00:10:34.038Z,20.13
2018-05-16T00:13:01.428Z,20.80
2018-05-16T00:15:28.808Z,20.20
2018-05-16T00:17:56.199Z,20.20
2018-05-16T00:20:23.578Z,19.03
2018-05-16T00:22:50.983Z,19.83
2018-05-16T00:25:18.374Z,20.70
2018-05-16T00:27:45.750Z,21.30
2018-05-16T00:30:13.150Z,20.27
2018-05-16T00:32:40.526Z,20.80
2018-05-16T00:35:07.915Z,20.93
2018-05-16T00:37:35.299Z,22.17
2018-05-16T00:40:02.691Z,22.27
2018-05-16T00:42:30.075Z,21.20
2018-05-16T00:44:57.475Z,21.60
2018-05-16T00:47:24.858Z,20.50
2018-05-16T00:49:52.236Z,22.93
2018-05-16T00:52:19.635Z,21.53
2018-05-16T00:54:47.015Z,20.60
2018-05-16T00:57:14.399Z,22.17
2018-05-16T00:59:41.783Z,22.33
2018-05-16T01:02:09.175Z,19.93
2018-05-16T01:04:36.559Z,21.07
2018-05-16T01:07:03.951Z,21.43
2018-05-16T01:09:31.336Z,20.50
2018-05-16T01:11:58.725Z,22.33
2018-05-16T01:14:26.104Z,21.53
2018-05-16T01:16:53.484Z,21.77
2018-05-16T01:19:20.875Z,21.60
2018-05-16T01:21:48.255Z,20.83
2018-05-16T01:24:15.647Z,21.77
2018-05-16T01:26:43.031Z,20.43
2018-05-16T01:29:10.415Z,19.97
2018-05-16T01:31:37.804Z,20.70
2018-05-16T01:34:05.188Z,21.23
2018-05-16T01:36:32.607Z,19.83
2018-05-16T01:38:59.991Z,20.43
2018-05-16T01:41:27.387Z,20.57
2018-05-16T01:43:54.771Z,21.80
2018-05-16T01:46:22.175Z,22.30
2018-05-16T01:49:01.310Z,20.43
2018-05-16T01:51:28.716Z,20.60
2018-05-16T01:53:56.099Z,22.30
2018-05-16T01:56:23.484Z,21.50
2018-05-16T01:58:50.881Z,21.50
2018-05-16T02:01:18.266Z,21.47
2018-05-16T02:03:45.659Z,21.63
2018-05-16T02:06:13.051Z,22.70
2018-05-16T02:08:40.442Z,21.50
2018-05-16T02:11:07.823Z,21.87
2018-05-16T02:13:35.224Z,21.97
2018-05-16T02:16:02.611Z,23.90
2018-05-16T02:18:29.999Z,23.20
2018-05-16T02:20:57.399Z,23.77
2018-05-16T02:23:24.850Z,22.43
2018-05-16T02:25:52.239Z,21.30
2018-05-16T02:28:19.619Z,22.43
2018-05-16T02:30:47.015Z,24.17
2018-05-16T02:33:14.395Z,23.10
2018-05-16T02:35:41.798Z,22.87
2018-05-16T02:38:09.179Z,22.67
2018-05-16T02:40:36.563Z,23.10
2018-05-16T02:43:03.959Z,22.47
2018-05-16T02:45:31.339Z,23.47
2018-05-16T02:47:58.728Z,22.23
2018-05-16T02:50:26.115Z,22.60
2018-05-16T02:52:53.503Z,23.50
2018-05-16T02:55:20.887Z,23.80
2018-05-16T02:57:48.275Z,22.53
2018-05-16T03:00:15.663Z,22.90
2018-05-16T03:02:43.235Z,23.93
2018-05-16T03:05:10.619Z,23.53
2018-05-16T03:07:37.995Z,22.67
2018-05-16T03:10:05.387Z,22.83
2018-05-16T03:12:32.767Z,22.53
2018-05-16T03:15:00.159Z,21.60
2018-05-16T03:17:27.538Z,22.57
2018-05-16T03:19:54.927Z,23.20
2018-05-16T03:22:22.311Z,22.93
2018-05-16T03:24:49.707Z,22.20
2018-05-16T03:27:17.087Z,23.47
2018-05-16T03:29:44.467Z,22.70
2018-05-16T03:32:11.854Z,22.80
2018-05-16T03:34:39.240Z,23.20
2018-05-16T03:37:06.827Z,23.13
2018-05-16T03:39:34.204Z,24.17
2018-05-16T03:42:01.599Z,23.20
2018-05-16T03:44:28.987Z,25.37
2018-05-16T03:46:56.382Z,23.57
2018-05-16T03:49:23.771Z,24.53
2018-05-16T03:51:51.214Z,24.17
2018-05-16T03:54:18.551Z,22.80
2018-05-16T03:56:45.949Z,22.80
2018-05-16T03:59:25.095Z,22.53
2018-05-16T04:02:04.207Z,21.70
2018-05-16T04:04:31.603Z,22.67
2018-05-16T04:06:58.992Z,21.20
2018-05-16T04:09:26.389Z,20.90
2018-05-16T04:11:53.774Z,22.47
2018-05-16T04:14:21.174Z,24.17
2018-05-16T04:16:48.555Z,24.33
2018-05-16T04:19:15.955Z,23.87
2018-05-16T04:21:43.347Z,24.73
2018-05-16T04:24:10.747Z,23.87
2018-05-16T04:26:38.145Z,24.20
2018-05-16T04:29:05.526Z,22.07
2018-05-16T04:31:32.923Z,21.70
2018-05-16T04:34:00.314Z,22.20
2018-05-16T04:36:27.710Z,22.60
2018-05-16T04:38:55.099Z,21.93
2018-05-16T04:41:22.498Z,23.60
2018-05-16T04:43:49.893Z,23.37
2018-05-16T04:46:17.267Z,24.77
2018-05-16T04:48:44.666Z,24.67
2018-05-16T04:51:12.059Z,23.50
2018-05-16T04:53:39.450Z,23.30
2018-05-16T04:56:06.842Z,23.83
2018-05-16T04:58:34.231Z,25.27
2018-05-16T05:01:01.642Z,25.13
2018-05-16T05:03:29.031Z,25.67
2018-05-16T05:05:56.419Z,24.70
2018-05-16T05:08:23.811Z,22.30
2018-05-16T05:10:51.203Z,24.50
2018-05-16T05:13:18.610Z,23.70
2018-05-16T05:15:45.983Z,23.80
2018-05-16T05:18:13.419Z,24.17
2018-05-16T05:20:40.763Z,24.93
2018-05-16T05:23:08.156Z,25.13
2018-05-16T05:25:35.541Z,24.83
2018-05-16T05:28:02.935Z,24.23
2018-05-16T05:30:30.326Z,24.00
2018-05-16T05:32:57.726Z,25.17
2018-05-16T05:35:25.115Z,25.00
2018-05-16T05:37:52.509Z,24.03
2018-05-16T05:40:19.897Z,24.20
2018-05-16T05:42:47.350Z,23.80
2018-05-16T05:45:14.747Z,24.37
2018-05-16T05:47:42.342Z,24.67
2018-05-16T05:50:09.732Z,23.43
2018-05-16T05:52:37.126Z,24.30
2018-05-16T05:55:04.808Z,23.03
2018-05-16T05:57:32.199Z,24.00
2018-05-16T05:59:59.582Z,24.07
2018-05-16T06:02:26.967Z,24.60
2018-05-16T06:04:54.354Z,24.87
2018-05-16T06:07:21.751Z,23.97
2018-05-16T06:09:49.139Z,21.90
2018-05-16T06:12:16.539Z,22.90
2018-05-16T06:14:43.955Z,22.50
2018-05-16T06:17:11.339Z,23.13
2018-05-16T06:19:38.824Z,23.37
2018-05-16T06:22:06.333Z,24.90
2018-05-16T06:24:33.723Z,23.10
2018-05-16T06:27:01.152Z,21.37
2018-05-16T06:29:28.534Z,23.20
2018-05-16T06:31:55.924Z,22.20
2018-05-16T06:34:23.314Z,22.93
2018-05-16T06:36:50.707Z,23.73
2018-05-16T06:39:18.133Z,22.70
2018-05-16T06:41:45.486Z,22.17
2018-05-16T06:44:12.872Z,21.03
2018-05-16T06:46:40.270Z,21.70
2018-05-16T06:49:07.665Z,22.90
2018-05-16T06:51:35.062Z,22.90
2018-05-16T06:54:02.454Z,22.53
2018-05-16T06:56:29.897Z,21.03
2018-05-16T06:58:57.238Z,21.50
2018-05-16T07:01:24.631Z,21.30
2018-05-16T07:03:52.028Z,21.50
2018-05-16T07:06:19.418Z,21.27
2018-05-16T07:08:46.823Z,22.47
2018-05-16T07:11:14.206Z,23.60
2018-05-16T07:13:41.621Z,22.97
2018-05-16T07:16:09.004Z,22.93
2018-05-16T07:18:36.386Z,21.77
2018-05-16T07:21:03.879Z,21.97
2018-05-16T07:23:31.258Z,22.17
2018-05-16T07:25:58.654Z,21.50
2018-05-16T07:28:26.043Z,21.30
2018-05-16T07:30:53.442Z,23.20
2018-05-16T07:33:20.891Z,22.70
2018-05-16T07:35:48.287Z,22.27
2018-05-16T07:38:15.683Z,21.97
2018-05-16T07:40:43.075Z,21.07
2018-05-16T07:43:10.467Z,19.80
2018-05-16T07:45:37.855Z,22.23
2018-05-16T07:48:05.247Z,24.07
2018-05-16T07:50:32.639Z,21.30
2018-05-16T07:53:00.035Z,20.00
2018-05-16T07:55:27.430Z,20.10
2018-05-16T07:57:54.823Z,20.23
2018-05-16T08:00:22.215Z,20.47
2018-05-16T08:02:49.603Z,20.80
2018-05-16T08:05:16.997Z,20.27
2018-05-16T08:07:44.388Z,17.63
2018-05-16T08:10:11.785Z,20.23
2018-05-16T08:12:39.278Z,19.33
2018-05-16T08:15:06.653Z,18.50
2018-05-16T08:17:34.040Z,18.87
2018-05-16T08:20:01.445Z,19.40
2018-05-16T08:22:28.827Z,19.17
2018-05-16T08:24:56.217Z,18.87
2018-05-16T08:27:23.612Z,19.50
2018-05-16T08:29:50.996Z,20.47
2018-05-16T08:32:18.396Z,20.33
2018-05-16T08:34:46.780Z,20.93
2018-05-16T08:37:14.171Z,19.10
2018-05-16T08:39:41.555Z,18.30
2018-05-16T08:42:09.187Z,20.53
2018-05-16T08:44:36.562Z,19.13
2018-05-16T08:47:03.950Z,18.87
2018-05-16T08:49:31.519Z,19.83
2018-05-16T08:51:58.899Z,19.23
2018-05-16T08:54:26.296Z,18.67
2018-05-16T08:56:53.683Z,19.27
2018-05-16T08:59:21.071Z,19.10
2018-05-16T09:01:48.471Z,17.73
2018-05-16T09:04:15.946Z,17.37
2018-05-16T09:06:43.247Z,18.37
2018-05-16T09:09:10.631Z,17.40
2018-05-16T09:11:38.227Z,18.47
2018-05-16T09:14:05.614Z,18.13
2018-05-16T09:16:33.007Z,18.50
2018-05-16T09:19:00.395Z,18.20
2018-05-16T09:21:27.804Z,18.40
2018-05-16T09:23:55.187Z,19.70
2018-05-16T09:26:22.576Z,18.57
2018-05-16T09:28:49.970Z,19.03
2018-05-16T09:31:17.358Z,16.57
2018-05-16T09:33:44.757Z,16.33
2018-05-16T09:36:12.143Z,16.60
2018-05-16T09:38:39.543Z,15.93
2018-05-16T09:41:06.931Z,17.10
2018-05-16T09:43:34.312Z,16.87
2018-05-16T09:46:01.711Z,17.57
2018-05-16T09:48:29.099Z,18.50
2018-05-16T09:50:56.491Z,20.27
2018-05-16T09:53:23.879Z,18.80
2018-05-16T09:55:51.279Z,18.10
2018-05-16T09:58:18.672Z,18.43
2018-05-16T10:00:46.063Z,17.63
2018-05-16T10:03:13.451Z,18.97
2018-05-16T10:05:40.843Z,17.93
2018-05-16T10:08:08.235Z,19.43
2018-05-16T10:10:35.623Z,17.87
2018-05-16T10:13:03.019Z,18.23
2018-05-16T10:15:30.414Z,19.60
2018-05-16T10:17:57.798Z,19.13
2018-05-16T10:20:25.199Z,19.23
2018-05-16T10:22:52.575Z,20.33
2018-05-16T10:25:19.965Z,20.10
2018-05-16T10:27:47.354Z,18.57
2018-05-16T10:30:14.767Z,18.47
2018-05-16T10:32:42.148Z,18.23
2018-05-16T10:35:09.539Z,18.70
2018-05-16T10:37:36.941Z,18.33
2018-05-16T10:40:04.339Z,19.00
2018-05-16T10:42:31.728Z,18.70
2018-05-16T10:44:59.122Z,19.40
2018-05-16T10:47:26.535Z,18.90
2018-05-16T10:49:53.922Z,16.90
2018-05-16T10:52:21.353Z,18.33
2018-05-16T10:54:48.703Z,19.40
2018-05-16T10:57:16.095Z,18.07
2018-05-16T10:59:43.490Z,19.17
2018-05-16T11:02:10.889Z,17.47
2018-05-16T11:04:38.282Z,18.37
2018-05-16T11:07:05.670Z,17.73
2018-05-16T11:09:33.063Z,16.90
2018-05-16T11:12:00.462Z,17.10
2018-05-16T11:14:27.850Z,17.23
2018-05-16T11:16:55.247Z,18.00
2018-05-16T11:19:22.631Z,19.70
2018-05-16T11:21:50.030Z,18.83
2018-05-16T11:24:17.410Z,17.90
2018-05-16T11:26:44.803Z,17.00
2018-05-16T11:29:12.198Z,17.90
2018-05-16T11:31:39.582Z,16.80
2018-05-16T11:34:06.975Z,17.43
2018-05-16T11:36:34.482Z,17.53
2018-05-16T11:39:01.864Z,17.63
2018-05-16T11:41:29.251Z,15.93
2018-05-16T11:43:56.640Z,17.90
2018-05-16T11:46:24.038Z,17.07
2018-05-16T11:48:51.434Z,17.50
2018-05-16T11:51:18.823Z,17.37
2018-05-16T11:53:46.323Z,16.33
2018-05-16T11:56:13.722Z,19.40
2018-05-16T11:58:41.113Z,18.13
2018-05-16T12:01:08.511Z,17.30
2018-05-16T12:03:35.902Z,18.87
2018-05-16T12:06:03.282Z,17.17
2018-05-16T12:08:30.679Z,15.73
2018-05-16T12:10:58.063Z,16.53
2018-05-16T12:13:25.462Z,17.60
2018-05-16T12:15:52.848Z,15.53
2018-05-16T12:18:20.226Z,16.07
2018-05-16T12:20:47.625Z,16.90
2018-05-16T12:23:15.019Z,15.37
2018-05-16T12:25:42.404Z,13.03
2018-05-16T12:28:09.795Z,17.00
2018-05-16T12:30:37.195Z,15.90
2018-05-16T12:33:04.584Z,15.90
2018-05-16T12:35:31.974Z,13.93
2018-05-16T12:37:59.367Z,11.97
2018-05-16T12:40:26.745Z,12.17
2018-05-16T12:43:18.742Z,12.50
2018-05-16T12:45:46.127Z,13.97
2018-05-16T12:48:13.530Z,12.93
2018-05-16T12:50:40.919Z,14.90
2018-05-16T12:53:08.338Z,13.73
2018-05-16T12:55:35.782Z,13.40
2018-05-16T12:58:03.127Z,14.67
2018-05-16T13:00:30.511Z,15.67
2018-05-16T13:02:57.931Z,16.57
2018-05-16T13:05:25.319Z,15.00
2018-05-16T13:07:52.706Z,15.57
2018-05-16T13:10:20.099Z,15.60
2018-05-16T13:12:47.536Z,15.47
2018-05-16T13:15:14.930Z,14.47
2018-05-16T13:17:42.379Z,16.00
2018-05-16T13:20:09.716Z,15.37
2018-05-16T13:22:37.110Z,15.20
2018-05-16T13:25:04.490Z,15.83
2018-05-16T13:27:31.882Z,14.70
2018-05-16T13:29:59.275Z,14.57
2018-05-16T13:35:28.975Z,15.43
2018-05-16T13:37:56.384Z,15.70
2018-05-16T13:40:23.774Z,16.40
2018-05-16T13:42:51.155Z,16.17
2018-05-16T13:45:18.551Z,14.33
2018-05-16T13:47:45.938Z,14.60
2018-05-16T13:50:13.327Z,14.13
2018-05-16T13:52:40.734Z,14.67
2018-05-16T13:55:08.130Z,14.33
2018-05-16T13:57:35.523Z,13.43
2018-05-16T14:00:03.000Z,13.70
2018-05-16T14:02:30.315Z,14.93
2018-05-16T14:04:57.723Z,14.63
2018-05-16T14:07:25.115Z,15.40
2018-05-16T14:09:52.511Z,15.10
2018-05-16T14:12:19.907Z,14.83
2018-05-16T14:14:47.299Z,15.63
2018-05-16T14:17:14.744Z,15.90
2018-05-16T14:19:42.131Z,14.53
2018-05-16T14:22:09.714Z,13.97
2018-05-16T14:24:37.106Z,13.30
2018-05-16T14:27:04.491Z,16.40
2018-05-16T14:29:31.904Z,14.00
2018-05-16T14:31:59.295Z,14.30
2018-05-16T14:34:26.701Z,13.90
2018-05-16T14:36:54.089Z,14.33
2018-05-16T14:39:21.567Z,14.83
2018-05-16T14:41:48.968Z,14.83
2018-05-16T14:44:16.393Z,14.60
2018-05-16T14:46:43.823Z,14.60
2018-05-16T14:49:11.227Z,15.30
2018-05-16T14:51:38.690Z,14.60
2018-05-16T14:54:06.087Z,15.70
2018-05-16T14:56:34.587Z,15.07
2018-05-16T14:59:02.190Z,15.67
2018-05-16T15:01:29.618Z,14.23
2018-05-16T15:03:57.007Z,15.00
2018-05-16T15:06:24.411Z,14.17
2018-05-16T15:08:51.846Z,14.27
2018-05-16T15:11:19.275Z,15.70
2018-05-16T15:13:46.690Z,15.20
2018-05-16T15:16:14.376Z,16.90
2018-05-16T15:18:41.766Z,15.50
2018-05-16T15:21:09.239Z,15.60
2018-05-16T15:23:36.643Z,14.90
2018-05-16T15:26:04.035Z,16.60
2018-05-16T15:28:31.448Z,15.97
2018-05-16T15:30:58.974Z,16.30
2018-05-16T15:33:26.351Z,16.90
2018-05-16T15:35:53.739Z,16.77
2018-05-16T15:38:21.141Z,15.30
2018-05-16T15:40:48.682Z,15.57
2018-05-16T15:43:16.182Z,15.43
2018-05-16T15:45:43.567Z,15.67
2018-05-16T15:48:10.975Z,16.43
2018-05-16T15:50:38.359Z,16.13
2018-05-16T15:53:06.207Z,16.30
2018-05-16T15:55:33.606Z,16.77
2018-05-16T15:58:00.995Z,16.40
2018-05-16T16:00:28.399Z,17.70
2018-05-16T16:02:55.775Z,17.40
2018-05-16T16:05:23.167Z,16.90
2018-05-16T16:07:50.559Z,17.50
2018-05-16T16:10:17.951Z,16.40
2018-05-16T16:12:45.340Z,15.33
2018-05-16T16:15:12.742Z,15.70
2018-05-16T16:17:40.123Z,16.87
2018-05-16T16:20:07.554Z,16.80
2018-05-16T16:22:34.943Z,15.80
2018-05-16T16:25:02.323Z,16.57
2018-05-16T16:27:29.724Z,16.47
2018-05-16T16:29:57.119Z,16.90
2018-05-16T16:32:24.506Z,18.23
2018-05-16T16:34:51.901Z,16.97
2018-05-16T16:37:19.291Z,15.67
2018-05-16T16:39:46.675Z,15.30
2018-05-16T16:42:14.077Z,15.50
2018-05-16T16:44:41.527Z,15.23
2018-05-16T16:47:08.867Z,14.83
2018-05-16T16:49:36.259Z,14.50
2018-05-16T16:52:03.669Z,13.93
2018-05-16T16:54:31.090Z,14.37
2018-05-16T16:56:58.443Z,14.70
2018-05-16T16:59:25.838Z,16.90
2018-05-16T17:01:53.239Z,18.03
2018-05-16T17:04:20.630Z,20.47
2018-05-16T17:06:48.029Z,21.00
2018-05-16T17:09:15.412Z,23.73
2018-05-16T17:11:42.810Z,25.83
2018-05-16T17:14:10.199Z,20.63
2018-05-16T17:16:37.582Z,23.43
2018-05-16T17:19:04.981Z,21.80
2018-05-16T17:21:32.359Z,24.40
2018-05-16T17:23:59.771Z,22.00
2018-05-16T17:26:27.155Z,31.40
2018-05-16T17:28:54.550Z,31.73
2018-05-16T17:31:21.946Z,32.80
2018-05-16T17:33:49.335Z,31.30
2018-05-16T17:36:16.731Z,31.23
2018-05-16T17:38:44.126Z,34.63
2018-05-16T17:41:11.551Z,32.60
2018-05-16T17:43:38.944Z,33.10
2018-05-16T17:46:06.438Z,33.70
2018-05-16T17:48:33.731Z,33.63
2018-05-16T17:51:01.137Z,34.70
2018-05-16T17:53:28.545Z,35.47
2018-05-16T17:55:55.931Z,36.60
2018-05-16T17:58:23.323Z,35.67
2018-05-16T18:00:50.799Z,36.13
2018-05-16T18:03:18.188Z,36.67
2018-05-16T18:05:45.574Z,37.30
2018-05-16T18:08:12.982Z,37.97
2018-05-16T18:10:40.378Z,36.20
2018-05-16T18:16:12.539Z,36.70
2018-05-16T18:18:39.942Z,35.80
2018-05-16T18:21:07.322Z,34.73
2018-05-16T18:23:34.723Z,34.40
2018-05-16T18:26:02.110Z,32.93
2018-05-16T18:28:29.542Z,30.07
2018-05-16T18:30:56.919Z,28.57
2018-05-16T18:33:24.309Z,28.37
2018-05-16T18:35:51.716Z,29.20
2018-05-16T18:38:19.100Z,29.63
2018-05-16T18:40:46.494Z,30.30
2018-05-16T18:43:13.951Z,31.93
2018-05-16T18:45:41.345Z,30.07
2018-05-16T18:48:08.791Z,32.00
2018-05-16T18:50:36.187Z,32.70
2018-05-16T18:53:03.578Z,32.83
2018-05-16T18:55:30.979Z,33.43
2018-05-16T18:57:58.418Z,33.40
2018-05-16T19:00:25.811Z,32.73
2018-05-16T19:02:53.221Z,35.10
2018-05-16T19:05:20.919Z,34.47
2018-05-16T19:07:48.434Z,33.57
2018-05-16T19:10:15.891Z,34.60
2018-05-16T19:12:43.278Z,34.63
2018-05-16T19:15:10.731Z,34.93
2018-05-16T19:17:38.171Z,35.27
2018-05-16T19:20:05.581Z,34.37
2018-05-16T19:22:32.979Z,33.47
2018-05-16T19:25:00.380Z,34.00
2018-05-16T19:27:27.774Z,31.50
2018-05-16T19:29:55.220Z,32.90
2018-05-16T19:32:22.667Z,32.87
2018-05-16T19:34:50.079Z,33.93
2018-05-16T19:37:17.516Z,32.90
2018-05-16T19:39:44.967Z,32.80
2018-05-16T19:42:12.403Z,31.90
2018-05-16T19:44:39.857Z,33.57
2018-05-16T19:47:07.255Z,33.53
2018-05-16T19:49:34.651Z,34.77
2018-05-16T19:52:02.045Z,34.90
2018-05-16T19:54:29.434Z,34.77
2018-05-16T19:56:56.830Z,36.27
2018-05-16T19:59:24.235Z,36.30
2018-05-16T20:01:51.623Z,35.07
2018-05-16T20:04:19.015Z,36.10
2018-05-16T20:06:46.479Z,34.57
2018-05-16T20:09:13.939Z,34.70
2018-05-16T20:11:41.270Z,36.00
2018-05-16T20:14:08.667Z,35.50
2018-05-16T20:16:36.062Z,34.20
2018-05-16T20:19:03.455Z,36.20
2018-05-16T20:21:31.018Z,33.50
2018-05-16T20:23:58.415Z,34.17
2018-05-16T20:26:25.813Z,32.90
2018-05-16T20:28:53.206Z,32.93
2018-05-16T20:31:20.595Z,33.20
2018-05-16T20:33:47.990Z,31.20
2018-05-16T20:36:15.391Z,31.57
2018-05-16T20:38:42.786Z,32.70
2018-05-16T20:41:10.191Z,32.80
2018-05-16T20:43:37.594Z,31.97
2018-05-16T20:46:04.987Z,33.03
2018-05-16T20:48:32.375Z,33.50
2018-05-16T20:50:59.773Z,35.23
2018-05-16T20:53:27.162Z,35.77
2018-05-16T20:55:54.599Z,34.43
2018-05-16T20:58:21.987Z,35.63
2018-05-16T21:00:49.471Z,34.07
2018-05-16T21:03:16.875Z,35.80
2018-05-16T21:05:44.303Z,33.93
2018-05-16T21:08:11.678Z,34.10
2018-05-16T21:10:39.083Z,34.17
2018-05-16T21:13:06.937Z,35.10
2018-05-16T21:15:34.329Z,34.53
2018-05-16T21:18:01.723Z,32.80
2018-05-16T21:20:29.114Z,37.33
2018-05-16T21:22:56.572Z,34.60
2018-05-16T21:25:23.962Z,33.80
2018-05-16T21:27:51.370Z,34.00
2018-05-16T21:30:18.764Z,31.57
2018-05-16T21:32:46.151Z,34.90
2018-05-16T21:35:13.547Z,36.67
2018-05-16T21:37:40.943Z,31.13
2018-05-16T21:40:08.322Z,32.10
2018-05-16T21:42:35.719Z,32.00
2018-05-16T21:45:03.114Z,33.37
2018-05-16T21:47:30.503Z,32.43
2018-05-16T21:49:57.898Z,32.90
2018-05-16T21:52:25.282Z,34.80
2018-05-16T21:54:52.677Z,33.73
2018-05-16T21:57:20.074Z,33.30
2018-05-16T21:59:47.455Z,33.53
2018-05-16T22:02:14.839Z,33.73
2018-05-16T22:04:42.231Z,33.20
2018-05-16T22:07:09.756Z,31.73
2018-05-16T22:09:37.139Z,32.10
2018-05-16T22:12:04.530Z,38.17
2018-05-16T22:14:31.927Z,33.97
2018-05-16T22:16:59.314Z,32.57
2018-05-16T22:19:26.760Z,32.27
2018-05-16T22:21:54.131Z,33.10
2018-05-16T22:24:21.478Z,34.13
2018-05-16T22:26:48.923Z,36.37
2018-05-16T22:29:16.315Z,33.27
2018-05-16T22:31:49.183Z,33.07
2018-05-16T22:34:22.075Z,31.23
2018-05-16T22:36:55.008Z,31.30
2018-05-16T22:39:27.786Z,32.87
2018-05-16T22:42:00.818Z,37.10
2018-05-16T22:44:33.795Z,31.47
2018-05-16T22:47:01.191Z,32.97
2018-05-16T22:49:28.578Z,34.33
2018-05-16T22:51:55.967Z,36.10
2018-05-16T22:54:23.358Z,36.10
2018-05-16T22:56:50.751Z,32.07
2018-05-16T22:59:18.362Z,31.13
2018-05-16T23:01:45.695Z,31.53
2018-05-16T23:04:13.122Z,32.00
2018-05-16T23:06:40.507Z,33.63
2018-05-16T23:09:07.903Z,31.87
2018-05-16T23:11:35.294Z,33.87
2018-05-16T23:14:02.690Z,31.93
2018-05-16T23:16:30.074Z,35.40
2018-05-16T23:18:57.463Z,32.63
2018-05-16T23:21:24.846Z,31.07
2018-05-16T23:23:52.263Z,32.00
2018-05-16T23:26:19.653Z,35.77
2018-05-16T23:28:47.055Z,32.87
2018-05-16T23:31:14.442Z,34.27
2018-05-16T23:33:41.839Z,34.30
2018-05-16T23:36:09.227Z,30.10
2018-05-16T23:38:36.616Z,28.80
2018-05-16T23:41:04.011Z,32.50
2018-05-16T23:43:31.395Z,28.60
2018-05-16T23:45:58.784Z,34.43
2018-05-16T23:48:26.183Z,28.63
2018-05-16T23:50:53.570Z,28.50
2018-05-16T23:53:20.959Z,28.93
2018-05-16T23:55:48.351Z,33.70
2018-05-16T23:58:15.730Z,27.77
